Time;durP1;ratioP1;P1;durP2;ratioP2;P2;SDS_P1;SDS_P2;PMS_P1;PMS_P2;Temp;Humidity;BMP_temperature;BMP_pressure;BME280_temperature;BME280_humidity;BME280_pressure;Samples;Min_cycle;Max_cycle;Signal;HPM_P1;HPM_P2
2023/10/30 00:01:39;;;;;;;5.83;1.30;;;9.90;99.90;;;;;;4912775;28;20202;-69
2023/10/30 00:04:06;;;;;;;11.93;1.50;;;9.80;99.90;;;;;;4910777;28;20195;-70
2023/10/30 00:06:32;;;;;;;6.67;1.40;;;9.80;99.90;;;;;;4912747;28;20206;-70
2023/10/30 00:08:58;;;;;;;7.63;1.40;;;9.80;99.90;;;;;;4911506;28;20208;-71
2023/10/30 00:11:23;;;;;;;6.07;1.37;;;9.70;99.90;;;;;;4912654;28;20184;-70
2023/10/30 00:13:49;;;;;;;7.27;1.07;;;9.70;99.90;;;;;;4911852;28;20183;-70
2023/10/30 00:16:15;;;;;;;9.17;1.70;;;9.70;99.90;;;;;;4912470;28;20253;-70
2023/10/30 00:18:42;;;;;;;3.47;1.23;;;9.70;99.90;;;;;;4912308;28;20238;-68
2023/10/30 00:21:11;;;;;;;5.70;1.30;;;9.70;99.90;;;;;;4912482;28;20176;-68
2023/10/30 00:23:36;;;;;;;13.47;1.70;;;9.70;99.90;;;;;;4911809;28;20192;-70
2023/10/30 00:26:03;;;;;;;6.70;1.20;;;9.70;99.90;;;;;;4912161;28;20188;-69
2023/10/30 00:28:30;;;;;;;8.07;1.30;;;9.60;99.90;;;;;;4912057;28;20721;-69
2023/10/30 00:30:56;;;;;;;8.03;1.17;;;9.70;99.90;;;;;;4912150;28;20267;-69
2023/10/30 00:33:21;;;;;;;5.17;1.43;;;9.70;99.90;;;;;;4911465;28;20180;-69
2023/10/30 00:35:47;;;;;;;6.07;1.00;;;9.70;99.90;;;;;;4904977;28;20215;-69
2023/10/30 00:38:13;;;;;;;9.83;1.20;;;9.70;99.90;;;;;;4911496;28;20199;-70
2023/10/30 00:40:38;;;;;;;15.83;1.40;;;9.70;99.90;;;;;;4912369;28;20196;-70
2023/10/30 00:43:04;;;;;;;3.80;1.10;;;9.70;99.90;;;;;;4911570;28;20195;-69
2023/10/30 00:45:30;;;;;;;8.60;1.37;;;9.70;99.90;;;;;;4911611;28;20187;-67
2023/10/30 00:47:56;;;;;;;7.27;1.40;;;9.70;99.90;;;;;;4911812;28;20286;-69
2023/10/30 00:50:21;;;;;;;9.37;1.80;;;9.80;99.90;;;;;;4912270;28;20204;-71
2023/10/30 00:52:47;;;;;;;3.40;1.33;;;9.80;99.90;;;;;;4911897;28;20210;-70
2023/10/30 00:55:13;;;;;;;13.50;1.67;;;9.80;99.90;;;;;;4910030;28;20212;-70
2023/10/30 00:57:38;;;;;;;7.23;1.40;;;9.90;99.90;;;;;;4911840;28;20243;-69
2023/10/30 01:00:05;;;;;;;6.77;1.10;;;9.90;99.90;;;;;;4911367;28;20227;-68
2023/10/30 01:02:31;;;;;;;8.53;1.53;;;9.90;99.90;;;;;;4911848;28;20211;-69
2023/10/30 01:04:57;;;;;;;5.67;1.00;;;9.90;99.90;;;;;;4911109;28;20216;-70
2023/10/30 01:07:23;;;;;;;4.80;1.20;;;9.90;99.90;;;;;;4907775;28;20211;-71
2023/10/30 01:09:49;;;;;;;6.27;1.20;;;9.90;99.90;;;;;;4907990;28;20227;-70
2023/10/30 01:12:14;;;;;;;7.57;1.27;;;10.00;99.90;;;;;;4910485;28;20231;-70
2023/10/30 01:14:40;;;;;;;5.57;1.40;;;10.00;99.90;;;;;;4952134;28;20219;-70
2023/10/30 01:17:06;;;;;;;4.60;1.30;;;10.10;99.90;;;;;;4911731;28;20188;-70
2023/10/30 01:19:31;;;;;;;4.60;1.30;;;10.10;99.90;;;;;;4911444;28;20223;-70
2023/10/30 01:21:57;;;;;;;5.97;1.37;;;10.20;99.90;;;;;;4910863;28;20597;-69
2023/10/30 01:24:22;;;;;;;6.03;1.40;;;10.20;99.90;;;;;;4904459;28;20195;-69
2023/10/30 01:26:48;;;;;;;7.37;1.57;;;10.30;99.90;;;;;;4911843;28;20262;-69
2023/10/30 01:29:14;;;;;;;5.77;1.50;;;10.30;99.90;;;;;;4911347;28;20227;-69
2023/10/30 01:31:39;;;;;;;8.47;1.50;;;10.40;99.90;;;;;;4911342;28;20677;-71
2023/10/30 01:34:05;;;;;;;6.80;1.50;;;10.40;99.90;;;;;;4910779;28;20190;-69
2023/10/30 01:36:31;;;;;;;7.37;1.40;;;10.40;99.90;;;;;;4911536;28;20192;-69
2023/10/30 01:38:57;;;;;;;7.37;1.40;;;10.40;99.90;;;;;;4911075;28;20242;-70
2023/10/30 01:41:23;;;;;;;3.30;1.47;;;10.40;99.90;;;;;;4911139;28;20257;-70
2023/10/30 01:43:49;;;;;;;8.67;1.63;;;10.40;99.90;;;;;;4910479;28;20278;-70
2023/10/30 01:46:15;;;;;;;5.53;1.20;;;10.40;99.90;;;;;;4911173;28;20190;-68
2023/10/30 01:48:41;;;;;;;10.30;1.50;;;10.50;99.90;;;;;;4912177;28;20601;-70
2023/10/30 01:51:08;;;;;;;9.43;1.40;;;10.40;99.90;;;;;;4913088;28;20230;-69
2023/10/30 01:53:34;;;;;;;5.33;1.20;;;10.40;99.90;;;;;;4910816;28;20183;-70
2023/10/30 01:56:03;;;;;;;6.47;1.63;;;10.50;99.90;;;;;;4911595;28;20728;-70
2023/10/30 01:58:29;;;;;;;13.87;1.67;;;10.40;99.90;;;;;;4904879;28;20728;-70
2023/10/30 02:00:59;;;;;;;5.97;1.80;;;10.50;99.90;;;;;;4908070;28;20188;-70
2023/10/30 02:03:24;;;;;;;5.10;1.23;;;10.50;99.90;;;;;;4910457;28;20180;-70
2023/10/30 02:05:51;;;;;;;7.50;2.57;;;10.60;99.90;;;;;;4912259;28;20596;-71
2023/10/30 02:08:16;;;;;;;5.10;1.60;;;10.60;99.90;;;;;;4914309;28;20218;-69
2023/10/30 02:10:42;;;;;;;6.70;1.73;;;10.60;99.90;;;;;;4914207;28;20650;-70
2023/10/30 02:13:08;;;;;;;7.23;1.80;;;10.70;99.90;;;;;;4911789;28;20659;-68
2023/10/30 02:15:34;;;;;;;7.23;1.63;;;10.70;99.90;;;;;;4908081;28;20231;-69
2023/10/30 02:18:00;;;;;;;6.93;1.50;;;10.70;99.90;;;;;;4914212;28;20598;-69
2023/10/30 02:20:26;;;;;;;6.80;1.43;;;10.70;99.90;;;;;;4914512;28;20207;-70
2023/10/30 02:22:52;;;;;;;8.33;1.83;;;10.70;99.90;;;;;;4914252;28;20180;-70
2023/10/30 02:25:24;;;;;;;9.77;1.57;;;10.70;99.90;;;;;;4905944;28;20551;-70
2023/10/30 02:27:51;;;;;;;11.10;1.80;;;10.70;99.90;;;;;;4914656;28;20184;-69
2023/10/30 02:30:16;;;;;;;7.87;1.80;;;10.70;99.90;;;;;;4913910;28;20294;-70
2023/10/30 02:32:44;;;;;;;5.47;1.47;;;10.80;99.90;;;;;;4914017;28;20271;-69
2023/10/30 02:35:19;;;;;;;9.47;1.90;;;10.80;99.90;;;;;;4913218;28;20188;-69
2023/10/30 02:37:45;;;;;;;7.37;1.93;;;10.80;99.90;;;;;;4914024;28;20273;-70
2023/10/30 02:40:12;;;;;;;7.90;1.77;;;10.80;99.90;;;;;;4913733;28;20559;-69
2023/10/30 02:42:38;;;;;;;5.23;1.30;;;10.80;99.90;;;;;;4913942;28;20184;-68
2023/10/30 02:45:04;;;;;;;10.60;1.97;;;10.80;99.90;;;;;;4913014;28;20560;-67
2023/10/30 02:47:34;;;;;;;3.93;1.63;;;10.80;99.90;;;;;;4915242;28;20272;-69
2023/10/30 02:50:01;;;;;;;9.67;1.90;;;10.80;99.90;;;;;;4915027;28;20290;-70
2023/10/30 02:52:28;;;;;;;9.77;1.90;;;10.70;99.90;;;;;;4915419;28;20183;-70
2023/10/30 02:54:53;;;;;;;5.67;1.97;;;10.80;99.90;;;;;;4913393;28;20184;-71
2023/10/30 02:57:19;;;;;;;12.03;2.10;;;10.70;99.90;;;;;;4914013;28;20199;-70
2023/10/30 02:59:44;;;;;;;8.50;1.93;;;10.80;99.90;;;;;;4913424;28;20220;-69
2023/10/30 03:02:10;;;;;;;10.83;1.90;;;10.80;99.90;;;;;;4913587;28;20191;-68
2023/10/30 03:04:36;;;;;;;8.63;1.80;;;10.80;99.90;;;;;;4913010;28;20186;-70
2023/10/30 03:07:01;;;;;;;10.10;2.20;;;10.80;99.90;;;;;;4913592;28;20267;-70
2023/10/30 03:09:29;;;;;;;11.83;2.90;;;10.80;99.90;;;;;;4913474;28;20204;-70
2023/10/30 03:11:55;;;;;;;10.67;2.27;;;10.80;99.90;;;;;;4913288;28;20196;-68
2023/10/30 03:14:21;;;;;;;9.77;1.97;;;10.70;99.90;;;;;;4912627;28;20187;-69
2023/10/30 03:16:46;;;;;;;8.43;2.00;;;10.70;99.90;;;;;;4912570;28;20278;-69
2023/10/30 03:19:12;;;;;;;9.10;2.03;;;10.80;99.90;;;;;;4912544;28;20875;-69
2023/10/30 03:21:37;;;;;;;10.30;2.13;;;10.70;99.90;;;;;;4913210;28;20188;-69
2023/10/30 03:24:03;;;;;;;7.73;1.80;;;10.80;99.90;;;;;;4913599;28;20202;-68
2023/10/30 03:26:29;;;;;;;7.20;1.93;;;10.70;99.90;;;;;;4913171;28;20226;-69
2023/10/30 03:28:55;;;;;;;14.63;1.80;;;10.70;99.90;;;;;;4913115;28;20609;-70
2023/10/30 03:31:21;;;;;;;7.90;1.70;;;10.70;99.90;;;;;;4913079;28;20183;-69
2023/10/30 03:33:47;;;;;;;6.00;2.27;;;10.70;99.90;;;;;;4912887;28;20254;-67
2023/10/30 03:36:22;;;;;;;9.80;1.80;;;10.80;99.90;;;;;;4913704;28;20193;-69
2023/10/30 03:38:49;;;;;;;8.73;1.93;;;10.80;99.90;;;;;;4913329;28;20300;-69
2023/10/30 03:41:15;;;;;;;6.37;1.50;;;10.80;99.90;;;;;;4913151;28;20618;-70
2023/10/30 03:43:41;;;;;;;11.87;1.90;;;10.70;99.90;;;;;;4912251;28;20208;-70
2023/10/30 03:46:06;;;;;;;2.87;1.47;;;10.70;99.90;;;;;;4912821;28;20191;-70
2023/10/30 03:48:32;;;;;;;6.37;1.70;;;10.70;99.90;;;;;;4912772;28;20670;-70
2023/10/30 03:50:57;;;;;;;4.07;1.27;;;10.80;99.90;;;;;;4913878;28;20567;-70
2023/10/30 03:53:23;;;;;;;8.23;2.00;;;10.70;99.90;;;;;;4914424;28;20214;-70
2023/10/30 03:55:48;;;;;;;10.73;1.30;;;10.60;99.90;;;;;;4912804;28;20203;-69
2023/10/30 03:58:15;;;;;;;5.43;1.50;;;10.70;99.90;;;;;;4912615;28;20226;-69
2023/10/30 04:00:41;;;;;;;8.33;1.40;;;10.70;99.90;;;;;;4912605;28;20191;-70
2023/10/30 04:03:07;;;;;;;9.53;1.87;;;10.60;99.90;;;;;;4912280;28;20180;-67
2023/10/30 04:05:32;;;;;;;5.07;1.33;;;10.60;99.90;;;;;;4913109;28;20180;-70
2023/10/30 04:07:58;;;;;;;9.70;1.47;;;10.60;99.90;;;;;;4917471;28;20271;-70
2023/10/30 04:10:24;;;;;;;14.07;1.50;;;10.60;99.90;;;;;;4915336;28;20753;-70
2023/10/30 04:12:49;;;;;;;4.93;1.30;;;10.50;99.90;;;;;;4912425;28;20199;-70
2023/10/30 04:15:15;;;;;;;4.07;1.50;;;10.50;99.90;;;;;;4911682;28;20549;-70
2023/10/30 04:17:41;;;;;;;6.63;1.33;;;10.50;99.90;;;;;;4912331;28;20274;-70
2023/10/30 04:20:06;;;;;;;6.07;1.40;;;10.40;99.90;;;;;;4912270;28;20583;-68
2023/10/30 04:22:32;;;;;;;4.80;1.27;;;10.40;99.90;;;;;;4912600;28;20266;-70
2023/10/30 04:24:57;;;;;;;7.33;1.50;;;10.40;99.90;;;;;;4911857;28;20192;-71
2023/10/30 04:27:23;;;;;;;13.90;2.43;;;10.30;99.90;;;;;;4912917;28;20276;-68
2023/10/30 04:29:49;;;;;;;5.07;1.60;;;10.40;99.90;;;;;;4912091;28;20219;-69
2023/10/30 04:32:14;;;;;;;7.57;1.43;;;10.40;99.90;;;;;;4904407;28;20192;-69
2023/10/30 04:34:40;;;;;;;2.37;1.20;;;10.40;99.90;;;;;;4911681;28;20188;-69
2023/10/30 04:37:06;;;;;;;5.97;1.40;;;10.40;99.90;;;;;;4904283;28;20184;-69
2023/10/30 04:39:31;;;;;;;7.17;1.30;;;10.30;99.90;;;;;;4912297;28;20269;-70
2023/10/30 04:41:57;;;;;;;4.47;1.30;;;10.40;99.90;;;;;;4912039;28;20188;-70
2023/10/30 04:44:23;;;;;;;11.17;1.60;;;10.40;99.90;;;;;;4911374;28;20661;-70
2023/10/30 04:46:48;;;;;;;7.90;1.60;;;10.40;99.90;;;;;;4912473;28;20188;-69
2023/10/30 04:49:14;;;;;;;11.40;1.50;;;10.40;99.90;;;;;;4911642;28;20231;-72
2023/10/30 04:51:39;;;;;;;11.23;1.60;;;10.40;99.90;;;;;;4904241;28;20222;-70
2023/10/30 04:54:05;;;;;;;6.83;1.63;;;10.40;99.90;;;;;;4911759;28;20188;-69
2023/10/30 04:56:31;;;;;;;6.80;1.63;;;10.40;99.90;;;;;;4904154;28;20693;-70
2023/10/30 04:58:56;;;;;;;10.03;1.90;;;10.40;99.90;;;;;;4911530;28;20705;-69
2023/10/30 05:01:22;;;;;;;8.90;1.90;;;10.50;99.90;;;;;;4910619;28;20233;-70
2023/10/30 05:03:47;;;;;;;9.67;1.53;;;10.50;99.90;;;;;;4911019;28;20271;-70
2023/10/30 05:06:13;;;;;;;9.73;1.50;;;10.50;99.90;;;;;;4911724;28;20206;-70
2023/10/30 05:08:39;;;;;;;6.17;1.67;;;10.40;99.90;;;;;;4912051;28;20689;-68
2023/10/30 05:11:04;;;;;;;4.23;1.63;;;10.50;99.90;;;;;;4912720;28;20203;-70
2023/10/30 05:13:30;;;;;;;7.50;1.40;;;10.50;99.90;;;;;;4910894;28;20188;-71
2023/10/30 05:15:59;;;;;;;8.57;1.33;;;10.50;99.90;;;;;;4911484;28;20192;-70
2023/10/30 05:18:25;;;;;;;7.13;1.47;;;10.50;99.90;;;;;;4911486;28;20578;-70
2023/10/30 05:20:51;;;;;;;5.77;1.43;;;10.50;99.90;;;;;;4911655;28;20192;-71
2023/10/30 05:23:16;;;;;;;7.10;1.63;;;10.50;99.90;;;;;;4910752;28;20266;-70
2023/10/30 05:25:43;;;;;;;4.23;1.60;;;10.50;99.90;;;;;;4905341;28;20796;-70
2023/10/30 05:28:09;;;;;;;15.63;1.77;;;10.50;99.90;;;;;;4909740;28;20191;-68
2023/10/30 05:30:35;;;;;;;5.97;1.57;;;10.50;99.90;;;;;;4911384;28;20271;-70
2023/10/30 05:33:01;;;;;;;6.27;1.77;;;10.60;99.90;;;;;;4911217;28;20192;-70
2023/10/30 05:35:26;;;;;;;7.00;1.70;;;10.60;99.90;;;;;;4903308;28;20191;-70
2023/10/30 05:37:52;;;;;;;8.63;1.80;;;10.60;99.90;;;;;;4911983;28;20613;-70
2023/10/30 05:40:18;;;;;;;4.83;1.30;;;10.50;99.90;;;;;;4911418;28;20238;-70
2023/10/30 05:42:43;;;;;;;5.60;2.00;;;10.60;99.90;;;;;;4914762;28;20699;-69
2023/10/30 05:45:09;;;;;;;9.47;1.90;;;10.60;99.90;;;;;;4915161;28;20199;-70
2023/10/30 05:47:36;;;;;;;9.37;1.70;;;10.60;99.90;;;;;;4914626;28;20199;-69
2023/10/30 05:50:01;;;;;;;9.53;1.40;;;10.60;99.90;;;;;;4908772;28;20223;-69
2023/10/30 05:52:27;;;;;;;7.80;1.50;;;10.70;99.90;;;;;;4922530;28;20188;-70
2023/10/30 05:54:52;;;;;;;10.10;1.90;;;10.70;99.90;;;;;;4919626;28;20194;-69
2023/10/30 05:57:19;;;;;;;5.73;1.70;;;10.70;99.90;;;;;;4897587;28;20195;-70
2023/10/30 05:59:44;;;;;;;7.03;1.70;;;10.70;99.90;;;;;;4914762;28;20708;-69
2023/10/30 06:02:10;;;;;;;10.73;1.63;;;10.70;99.90;;;;;;4914748;28;20194;-69
2023/10/30 06:04:35;;;;;;;4.57;1.40;;;10.80;99.90;;;;;;4912594;28;20210;-70
2023/10/30 06:07:01;;;;;;;12.93;2.37;;;10.80;99.90;;;;;;4914502;28;20196;-71
2023/10/30 06:09:27;;;;;;;5.20;1.37;;;10.80;99.90;;;;;;4915161;28;20273;-71
2023/10/30 06:11:53;;;;;;;3.93;1.20;;;10.80;99.90;;;;;;4914362;28;20200;-70
2023/10/30 06:14:19;;;;;;;2.77;1.10;;;10.80;99.90;;;;;;4910271;28;20216;-69
2023/10/30 06:16:45;;;;;;;9.53;1.67;;;10.80;99.90;;;;;;4909462;28;20219;-70
2023/10/30 06:19:11;;;;;;;7.67;1.37;;;10.80;99.90;;;;;;4914038;28;20234;-70
2023/10/30 06:21:43;;;;;;;9.43;2.10;;;10.80;99.90;;;;;;4914353;28;20188;-69
2023/10/30 06:24:09;;;;;;;5.20;1.57;;;10.90;99.90;;;;;;4913997;28;20199;-70
2023/10/30 06:26:38;;;;;;;5.03;1.50;;;10.90;99.90;;;;;;4914289;28;20566;-70
2023/10/30 06:29:03;;;;;;;6.83;1.37;;;10.80;99.90;;;;;;4912926;28;20216;-70
2023/10/30 06:31:29;;;;;;;5.73;1.47;;;10.70;99.90;;;;;;4914443;28;20202;-70
2023/10/30 06:33:55;;;;;;;8.60;1.50;;;10.70;99.90;;;;;;4913577;28;20283;-70
2023/10/30 06:36:21;;;;;;;5.47;1.37;;;10.70;99.90;;;;;;4907386;28;20269;-70
2023/10/30 06:38:47;;;;;;;8.73;1.30;;;10.80;99.90;;;;;;4915588;28;20792;-69
2023/10/30 06:41:13;;;;;;;3.83;1.20;;;10.80;99.90;;;;;;4914078;28;20211;-69
2023/10/30 06:43:39;;;;;;;6.03;1.40;;;10.80;99.90;;;;;;4912350;28;20676;-69
2023/10/30 06:46:06;;;;;;;7.63;1.70;;;10.80;99.90;;;;;;4913662;28;20188;-69
2023/10/30 06:48:32;;;;;;;7.87;1.43;;;10.80;99.90;;;;;;4915508;28;20227;-70
2023/10/30 06:50:58;;;;;;;8.23;3.17;;;10.80;99.90;;;;;;4913603;28;20223;-70
2023/10/30 06:53:23;;;;;;;7.83;1.27;;;10.80;99.90;;;;;;4913546;28;20212;-71
2023/10/30 06:55:50;;;;;;;1.43;0.80;;;10.90;99.90;;;;;;4913559;28;20199;-70
2023/10/30 06:58:16;;;;;;;2.93;1.00;;;10.80;99.90;;;;;;4912624;28;20184;-71
2023/10/30 07:00:42;;;;;;;3.90;1.07;;;10.80;99.90;;;;;;4912953;28;20219;-71
2023/10/30 07:03:08;;;;;;;3.97;1.10;;;10.90;99.90;;;;;;4914017;28;20266;-71
2023/10/30 07:05:34;;;;;;;3.97;1.17;;;10.80;99.90;;;;;;4914448;28;20196;-72
2023/10/30 07:07:59;;;;;;;4.87;1.20;;;10.80;99.90;;;;;;4913798;28;20199;-70
2023/10/30 07:10:25;;;;;;;4.10;1.07;;;10.90;99.90;;;;;;4914327;28;20286;-69
2023/10/30 07:12:50;;;;;;;28.37;10.43;;;10.90;99.90;;;;;;4913567;28;20727;-71
2023/10/30 07:15:16;;;;;;;3.30;1.20;;;10.90;99.90;;;;;;4912047;28;20589;-71
2023/10/30 07:17:43;;;;;;;2.90;1.03;;;11.00;99.90;;;;;;4913213;28;20207;-70
2023/10/30 07:20:13;;;;;;;6.03;1.40;;;11.00;99.90;;;;;;4916157;28;20273;-68
2023/10/30 07:22:39;;;;;;;6.07;1.53;;;11.10;99.90;;;;;;4916681;28;20196;-71
2023/10/30 07:25:06;;;;;;;5.47;1.47;;;11.10;99.90;;;;;;4915289;28;20857;-70
2023/10/30 07:27:33;;;;;;;5.60;1.20;;;11.00;99.90;;;;;;4915120;28;20211;-70
2023/10/30 07:29:59;;;;;;;1.83;0.90;;;11.00;99.90;;;;;;4913042;28;20623;-69
2023/10/30 07:32:25;;;;;;;3.37;0.90;;;11.00;99.90;;;;;;4914231;28;20661;-70
2023/10/30 07:34:51;;;;;;;3.70;1.30;;;11.10;99.90;;;;;;4914303;28;20184;-70
2023/10/30 07:37:16;;;;;;;5.80;1.30;;;11.10;99.90;;;;;;4905087;28;20188;-71
2023/10/30 07:39:42;;;;;;;5.77;1.30;;;11.20;99.90;;;;;;4912542;28;20548;-70
2023/10/30 07:42:07;;;;;;;2.83;0.90;;;11.20;99.90;;;;;;4912290;28;20203;-71
2023/10/30 07:44:33;;;;;;;8.87;2.00;;;11.20;99.90;;;;;;4911702;28;20203;-71
2023/10/30 07:46:59;;;;;;;4.13;1.10;;;11.20;99.90;;;;;;4912492;28;20202;-71
2023/10/30 07:49:24;;;;;;;3.57;1.17;;;11.20;99.90;;;;;;4913380;28;20220;-70
2023/10/30 07:51:50;;;;;;;2.87;1.53;;;11.20;99.90;;;;;;4913565;28;20196;-69
2023/10/30 07:54:15;;;;;;;3.13;1.00;;;11.30;99.90;;;;;;4912669;28;20195;-69
2023/10/30 07:56:42;;;;;;;1.67;1.07;;;11.40;99.90;;;;;;4912165;28;20286;-70
2023/10/30 07:59:07;;;;;;;5.47;1.00;;;11.30;99.90;;;;;;4905399;28;20226;-71
2023/10/30 08:01:36;;;;;;;8.60;2.00;;;11.40;99.90;;;;;;4913104;28;20471;-70
2023/10/30 08:04:02;;;;;;;5.43;1.33;;;11.50;99.90;;;;;;4911417;28;20234;-69
2023/10/30 08:06:27;;;;;;;1.93;1.00;;;11.50;99.90;;;;;;4913656;28;20176;-71
2023/10/30 08:08:53;;;;;;;7.33;1.93;;;11.60;99.90;;;;;;4914436;28;20591;-71
2023/10/30 08:11:19;;;;;;;1.90;1.00;;;11.60;99.90;;;;;;4913598;28;20228;-71
2023/10/30 08:13:44;;;;;;;2.70;1.03;;;11.70;99.90;;;;;;4913151;28;20191;-71
2023/10/30 08:16:13;;;;;;;2.67;1.10;;;11.70;99.90;;;;;;4913130;28;20566;-69
2023/10/30 08:18:39;;;;;;;3.13;0.90;;;11.70;99.90;;;;;;4914231;28;20313;-70
2023/10/30 08:21:07;;;;;;;6.07;0.80;;;11.70;99.90;;;;;;4912582;28;20188;-70
2023/10/30 08:23:34;;;;;;;2.10;1.40;;;11.80;99.90;;;;;;4914184;28;20738;-70
2023/10/30 08:25:59;;;;;;;1.67;0.80;;;11.90;99.90;;;;;;4913860;28;20192;-70
2023/10/30 08:28:25;;;;;;;3.80;1.30;;;11.90;99.90;;;;;;4912215;28;20330;-71
2023/10/30 08:30:50;;;;;;;4.93;0.70;;;11.90;99.90;;;;;;4912238;28;20653;-71
2023/10/30 08:33:16;;;;;;;3.03;0.80;;;12.00;99.90;;;;;;4912261;28;20184;-71
2023/10/30 08:35:42;;;;;;;6.17;2.37;;;12.00;99.90;;;;;;4911864;28;20720;-70
2023/10/30 08:38:07;;;;;;;2.53;0.80;;;12.20;99.90;;;;;;4911229;28;20184;-70
2023/10/30 08:40:33;;;;;;;3.80;1.83;;;12.20;99.90;;;;;;4911412;28;20222;-69
2023/10/30 08:42:58;;;;;;;4.70;1.83;;;12.30;99.90;;;;;;4911164;28;20196;-71
2023/10/30 08:45:26;;;;;;;1.63;0.80;;;12.50;99.90;;;;;;4910933;28;20258;-71
2023/10/30 08:47:51;;;;;;;2.40;0.70;;;12.60;99.90;;;;;;4912919;28;20195;-70
2023/10/30 08:50:17;;;;;;;1.03;0.57;;;12.70;99.90;;;;;;4912110;28;20314;-70
2023/10/30 08:52:43;;;;;;;1.93;0.73;;;12.80;99.90;;;;;;4911432;28;20215;-71
2023/10/30 08:55:08;;;;;;;3.40;0.60;;;12.90;99.90;;;;;;4910717;28;20219;-70
2023/10/30 08:57:34;;;;;;;4.40;0.70;;;13.00;99.90;;;;;;4911545;28;20203;-70
2023/10/30 08:59:59;;;;;;;6.27;0.60;;;13.00;99.90;;;;;;4911039;28;20228;-70
2023/10/30 09:02:25;;;;;;;2.60;1.10;;;12.80;99.90;;;;;;4911201;28;20196;-69
2023/10/30 09:04:50;;;;;;;1.27;0.57;;;12.90;99.90;;;;;;4910721;28;20223;-69
2023/10/30 09:07:16;;;;;;;2.60;0.53;;;12.90;99.90;;;;;;4910966;28;20195;-70
2023/10/30 09:09:42;;;;;;;3.27;0.50;;;12.90;99.90;;;;;;4903261;28;20220;-67
2023/10/30 09:12:08;;;;;;;1.73;0.50;;;12.80;99.90;;;;;;4907098;28;20251;-70
2023/10/30 09:14:34;;;;;;;1.33;0.50;;;12.80;99.90;;;;;;4940271;28;20223;-71
2023/10/30 09:16:59;;;;;;;5.30;0.77;;;12.90;99.90;;;;;;4944706;28;20631;-69
2023/10/30 09:19:25;;;;;;;1.60;0.53;;;13.00;99.90;;;;;;4946882;28;20640;-70
2023/10/30 09:21:52;;;;;;;1.60;0.60;;;13.10;99.90;;;;;;4956320;28;20250;-69
2023/10/30 09:24:17;;;;;;;1.37;0.40;;;13.20;99.90;;;;;;4946397;28;20191;-68
2023/10/30 09:26:43;;;;;;;3.93;0.60;;;13.40;99.90;;;;;;4966558;28;21020;-70
2023/10/30 09:29:09;;;;;;;2.23;0.50;;;13.80;99.90;;;;;;4955626;28;20672;-70
2023/10/30 09:31:34;;;;;;;5.13;0.73;;;14.20;99.90;;;;;;4952688;28;20184;-70
2023/10/30 09:34:00;;;;;;;2.50;0.70;;;14.60;99.90;;;;;;4960811;28;20202;-69
2023/10/30 09:36:27;;;;;;;3.17;0.50;;;15.00;99.90;;;;;;4954207;28;20183;-69
2023/10/30 09:38:53;;;;;;;1.77;0.60;;;15.40;99.90;;;;;;4949419;28;20208;-69
2023/10/30 09:41:19;;;;;;;5.07;0.50;;;15.60;99.90;;;;;;4947185;28;20191;-68
2023/10/30 09:43:51;;;;;;;3.03;0.63;;;15.90;99.90;;;;;;4924729;28;20910;-70
2023/10/30 09:46:26;;;;;;;7.37;3.23;;;16.20;99.90;;;;;;4944246;28;20188;-71
2023/10/30 09:48:54;;;;;;;3.90;0.63;;;16.10;99.90;;;;;;4935368;28;20599;-70
2023/10/30 09:51:21;;;;;;;0.87;0.50;;;15.80;99.90;;;;;;4955511;28;20254;-69
2023/10/30 09:53:48;;;;;;;3.20;0.40;;;15.90;99.90;;;;;;4948177;28;20243;-71
2023/10/30 09:56:16;;;;;;;0.83;0.30;;;16.20;99.90;;;;;;4960670;28;20620;-70
2023/10/30 09:58:42;;;;;;;3.43;0.50;;;17.00;99.90;;;;;;4924100;28;20239;-70
2023/10/30 10:01:08;;;;;;;1.00;0.70;;;17.40;99.90;;;;;;4938104;28;20398;-69
2023/10/30 10:03:33;;;;;;;1.20;0.50;;;17.90;99.90;;;;;;4945209;28;20228;-69
2023/10/30 10:05:59;;;;;;;1.07;0.37;;;18.20;99.90;;;;;;4935120;28;20644;-70
2023/10/30 10:08:26;;;;;;;2.23;0.30;;;18.40;99.90;;;;;;4949748;28;20682;-70
2023/10/30 10:11:02;;;;;;;1.13;0.40;;;17.90;99.90;;;;;;4938266;28;20195;-70
2023/10/30 10:13:29;;;;;;;0.70;0.30;;;17.90;99.90;;;;;;4957703;28;20215;-70
2023/10/30 10:15:55;;;;;;;3.50;0.40;;;17.70;99.90;;;;;;4961296;28;20203;-70
2023/10/30 10:18:28;;;;;;;1.33;0.30;;;17.90;99.90;;;;;;4940117;28;20721;-70
2023/10/30 10:21:04;;;;;;;0.73;0.30;;;17.70;99.90;;;;;;4904675;28;20196;-71
2023/10/30 10:23:33;;;;;;;1.83;0.40;;;17.70;99.90;;;;;;4903540;28;20184;-70
2023/10/30 10:26:00;;;;;;;0.50;0.30;;;17.60;99.90;;;;;;4906498;28;20181;-71
2023/10/30 10:28:26;;;;;;;2.23;0.50;;;17.40;99.90;;;;;;4908038;28;20619;-71
2023/10/30 10:30:53;;;;;;;2.53;1.03;;;16.90;99.90;;;;;;4903087;28;20288;-70
2023/10/30 10:33:32;;;;;;;3.23;0.50;;;17.00;99.90;;;;;;4910259;28;20188;-70
2023/10/30 10:36:01;;;;;;;7.70;0.50;;;17.10;99.90;;;;;;4909397;28;20187;-70
2023/10/30 10:38:27;;;;;;;4.73;0.30;;;17.00;99.90;;;;;;4906912;28;20214;-70
2023/10/30 10:40:53;;;;;;;1.83;0.90;;;17.00;99.90;;;;;;4908860;28;20188;-70
2023/10/30 10:43:20;;;;;;;1.00;0.43;;;16.90;99.90;;;;;;4909078;28;20200;-71
2023/10/30 10:45:47;;;;;;;1.33;0.50;;;16.90;99.90;;;;;;4902838;28;20186;-71
2023/10/30 10:48:14;;;;;;;1.00;0.63;;;16.80;99.90;;;;;;4909884;28;20187;-69
2023/10/30 10:50:41;;;;;;;0.50;0.30;;;16.70;99.90;;;;;;4907195;28;20215;-67
2023/10/30 10:53:07;;;;;;;1.37;0.50;;;16.90;99.90;;;;;;4912729;28;20194;-68
2023/10/30 10:56:05;;;;;;;7.20;3.03;;;17.10;99.90;;;;;;4905639;28;20230;-68
2023/10/30 10:58:36;;;;;;;1.00;0.60;;;16.80;99.90;;;;;;4910059;28;20216;-68
2023/10/30 11:01:05;;;;;;;1.97;0.40;;;16.70;99.90;;;;;;4930270;28;20606;-68
2023/10/30 11:03:31;;;;;;;1.53;0.43;;;16.80;99.90;;;;;;4942410;28;20188;-70
2023/10/30 11:05:58;;;;;;;2.03;0.40;;;16.70;99.90;;;;;;4954648;28;20184;-67
2023/10/30 11:08:41;;;;;;;0.90;0.40;;;16.80;99.90;;;;;;4945853;28;20204;-68
2023/10/30 11:11:17;;;;;;;2.30;0.40;;;17.20;99.90;;;;;;4954081;28;20184;-68
2023/10/30 11:14:00;;;;;;;1.53;0.40;;;17.40;99.90;;;;;;4954725;28;20191;-68
2023/10/30 11:16:35;;;;;;;2.63;0.40;;;17.40;99.90;;;;;;4959504;28;20658;-69
2023/10/30 11:19:00;;;;;;;3.30;0.70;;;17.20;99.90;;;;;;4949337;28;20354;-68
2023/10/30 11:21:27;;;;;;;3.57;0.70;;;17.00;99.90;;;;;;4969773;28;20597;-68
2023/10/30 11:23:58;;;;;;;1.57;0.57;;;16.90;99.90;;;;;;4971947;28;20206;-68
2023/10/30 11:26:29;;;;;;;2.47;0.40;;;16.70;99.90;;;;;;4951482;28;20279;-68
2023/10/30 11:28:55;;;;;;;0.50;0.30;;;16.60;99.90;;;;;;4946717;28;20373;-69
2023/10/30 11:31:21;;;;;;;0.83;0.40;;;16.60;99.90;;;;;;4967020;28;20187;-70
2023/10/30 11:33:48;;;;;;;1.90;0.47;;;16.20;99.90;;;;;;4951674;28;20918;-69
2023/10/30 11:36:18;;;;;;;1.47;0.90;;;16.10;99.90;;;;;;4940708;28;20304;-69
2023/10/30 11:39:10;;;;;;;1.90;0.73;;;16.20;99.90;;;;;;4959559;28;20207;-69
2023/10/30 11:41:37;;;;;;;1.90;0.60;;;16.20;99.90;;;;;;4943997;28;20224;-69
2023/10/30 11:44:15;;;;;;;3.37;0.40;;;16.20;99.90;;;;;;4932585;28;20569;-70
2023/10/30 11:46:42;;;;;;;4.10;0.93;;;16.10;99.90;;;;;;4941256;28;20218;-69
2023/10/30 11:49:09;;;;;;;3.93;0.57;;;16.30;99.90;;;;;;4939105;28;20708;-68
2023/10/30 11:51:41;;;;;;;1.10;0.87;;;16.60;99.90;;;;;;4951648;28;20210;-69
2023/10/30 11:54:07;;;;;;;4.20;0.80;;;16.80;99.90;;;;;;4934989;28;20203;-70
2023/10/30 11:56:32;;;;;;;4.10;0.60;;;17.10;99.90;;;;;;4957209;28;20192;-69
2023/10/30 11:58:59;;;;;;;1.33;0.50;;;17.20;99.90;;;;;;4943835;28;20226;-70
2023/10/30 12:01:25;;;;;;;2.13;0.90;;;17.30;99.90;;;;;;4952769;28;20279;-69
2023/10/30 12:03:50;;;;;;;0.90;0.40;;;17.20;99.90;;;;;;4951141;28;20275;-69
2023/10/30 12:06:16;;;;;;;4.97;0.80;;;17.10;99.90;;;;;;4939290;28;20634;-70
2023/10/30 12:08:42;;;;;;;3.17;0.70;;;17.10;99.90;;;;;;4937645;28;20242;-70
2023/10/30 12:11:07;;;;;;;1.00;0.53;;;17.10;99.90;;;;;;4964003;28;20192;-70
2023/10/30 12:13:34;;;;;;;1.37;0.57;;;16.90;99.90;;;;;;4955150;28;20604;-68
2023/10/30 12:16:00;;;;;;;0.70;0.40;;;16.90;99.90;;;;;;4948402;28;20219;-69
2023/10/30 12:18:25;;;;;;;2.60;0.50;;;17.00;99.90;;;;;;4948765;28;20242;-69
2023/10/30 12:20:51;;;;;;;1.47;0.80;;;16.80;99.90;;;;;;4952259;28;20495;-69
2023/10/30 12:23:16;;;;;;;1.33;0.60;;;16.90;99.90;;;;;;4931521;28;20267;-69
2023/10/30 12:25:43;;;;;;;1.77;0.90;;;17.00;99.90;;;;;;4961786;28;20243;-68
2023/10/30 12:28:08;;;;;;;2.53;0.60;;;17.10;99.90;;;;;;4914160;28;20218;-70
2023/10/30 12:30:35;;;;;;;3.43;0.40;;;16.90;99.90;;;;;;4906488;28;20674;-70
2023/10/30 12:33:01;;;;;;;1.27;1.00;;;16.70;99.90;;;;;;4906551;28;20574;-70
2023/10/30 12:35:26;;;;;;;0.73;0.60;;;16.60;99.90;;;;;;4905370;28;20315;-69
2023/10/30 12:37:52;;;;;;;1.37;0.70;;;16.50;99.90;;;;;;4908156;28;20231;-69
2023/10/30 12:40:18;;;;;;;1.73;0.60;;;16.50;99.90;;;;;;4910918;28;20243;-69
2023/10/30 12:42:45;;;;;;;2.97;0.97;;;16.40;99.90;;;;;;4907834;28;20188;-69
2023/10/30 12:45:16;;;;;;;1.10;0.60;;;16.40;99.90;;;;;;4903737;28;20254;-69